Renderfarm Status:OK
Avg Time Per Frame:137.2 min/frame
Total Users Today:0
Total CPU Time Today:4.57 Hours
Total Frames Waiting:100
Today's CPU Champion:njones26 / 0 days 4 hr
Active Jobs
Job User Frames Renderer Total CPU Average Start End Status
71003 njones26 20 arnold 24.03 Hours 80.1 min 06/18 09:56 PM Rendering
Completed Jobs
Job User Frames Renderer Total CPU Average Start End Speedup Status
71002 botili20 100 arnold 110.48 Hours 66.3 min 06/18 09:08 PM 06/18 11:03 PM 57.7x Complete!
71001 chulee22 100 arnold 27.15 Hours 16.3 min 06/18 08:22 PM 06/18 08:48 PM 63.5x Complete!
71000 mzhang27 41 rman 13.44 Hours 19.7 min 06/18 07:21 PM 06/18 08:22 PM 13.3x Complete!
70999 chulee22 100 arnold 58.09 Hours 34.9 min 06/18 07:13 PM 06/18 08:20 PM 52.3x Complete!
70998 njones26 100 arnold 168.47 Hours 101.1 min 06/18 06:57 PM 06/18 09:42 PM 61.4x Complete!
70997 mzhang27 36 rman 5.2 Hours 8.7 min 06/18 06:55 PM 06/18 07:08 PM 24.6x Complete!
70996 botili20 100 arnold 121.75 Hours 73.1 min 06/18 06:54 PM 06/18 08:36 PM 71.5x Complete!
70995 chulee22 100 arnold 53.37 Hours 32 min 06/18 06:11 PM 06/18 07:11 PM 53x Complete!
70994 mzhang27 41 rman 11.06 Hours 16.2 min 06/18 05:36 PM 06/18 06:05 PM 22.6x Complete!
70993 njones26 20 arnold 4.79 Hours 14.4 min 06/18 05:31 PM 06/18 05:59 PM 10.1x Complete!
70992 njones26 100 arnold 24.55 Hours 14.7 min 06/18 05:01 PM 06/18 05:30 PM 51.2x Complete!
70991 mzhang27 61 rman 24.04 Hours 23.6 min 06/18 04:48 PM 06/18 05:29 PM 35.1x Complete!
70990 botili20 100 arnold 113.39 Hours 68 min 06/18 04:03 PM 06/18 05:59 PM 58.5x Complete!
70989 mzhang27 76 rman 35.68 Hours 28.2 min 06/18 03:27 PM 06/18 04:22 PM 39x Complete!
70988 njones26 30 arnold 5.32 Hours 10.6 min 06/18 03:15 PM 06/18 03:37 PM 13.9x Complete!
70987 njones26 90 arnold 4.08 Hours 2.7 min 06/18 03:04 PM 06/18 03:09 PM 46.6x Complete!
70986 mzhang27 86 rman 25.54 Hours 17.8 min 06/18 02:50 PM 06/18 03:23 PM 45.6x Complete!
70985 njones26 90 arnold 2.69 Hours 1.8 min 06/18 02:48 PM 06/18 02:53 PM 29.8x Complete!
70984 njones26 80 arnold 1.39 Hours 1 min 06/18 02:41 PM 06/18 02:45 PM 18.5x Complete!
70983 botili20 30 arnold 28.35 Hours 56.7 min 06/18 02:26 PM 06/18 03:43 PM 22.2x Complete!
70982 mzhang27 45 rman 11.51 Hours 15.3 min 06/18 02:24 PM 06/18 02:48 PM 29.3x Complete!
70981 mzhang27 40 rman 23.43 Hours 35.1 min 06/18 12:33 PM 06/18 01:32 PM 23.7x Complete!
70980 mzhang27 55 rman 37.28 Hours 40.7 min 06/18 11:16 AM 06/18 12:20 PM 34.9x Complete!
70979 botili20 100 arnold 103.22 Hours 61.9 min 06/18 10:58 AM 06/18 12:38 PM 62.2x Complete!
70978 mzhang27 14 rman 6.84 Hours 29.3 min 06/18 10:14 AM 06/18 11:12 AM 7.1x Complete!
70977 jidong21 66 arnold 3.29 Hours 3 min 06/18 10:13 AM 06/18 10:18 AM 38.3x Complete!
70976 mclayt22 100 arnold 88.5 Hours 53.1 min 06/18 10:10 AM 06/18 11:50 AM 52.9x Complete!
70975 mzhang27 100 rman 34.92 Hours 21 min 06/18 09:35 AM 06/18 10:13 AM 55.6x Complete!
70974 dfowler 8 houdini 0.25 Hours 1.9 min 06/18 09:07 AM 06/18 09:10 AM 6.5x Complete!
70973 dfowler 61 houdini 1.62 Hours 1.6 min 06/18 08:44 AM 06/18 08:46 AM 43.7x Complete!
70972 dfowler 100 houdini 2.61 Hours 1.6 min 06/18 08:42 AM 06/18 08:44 AM 70.2x Complete!
70971 mzhang27 80 rman 42.17 Hours 31.6 min 06/18 08:34 AM 06/18 09:23 AM 51.9x Complete!
70970 botili20 100 arnold 114.88 Hours 68.9 min 06/18 08:33 AM 06/18 10:21 AM 64x Complete!
70969 dfowler 100 houdini 2.27 Hours 1.4 min 06/18 08:32 AM 06/18 08:34 AM 59.7x Complete!
70968 dfowler 100 houdini 1.95 Hours 1.2 min 06/18 08:29 AM 06/18 08:31 AM 51.7x Complete!
70967 dfowler 93 houdini 2.19 Hours 1.4 min 06/18 08:15 AM 06/18 08:17 AM 55.2x Complete!
70966 dfowler 79 houdini 2.16 Hours 1.6 min 06/18 08:10 AM 06/18 08:12 AM 52.1x Complete!
70965 dfowler 100 houdini 2.52 Hours 1.5 min 06/18 08:06 AM 06/18 08:08 AM 65.8x Complete!
70964 dfowler 100 houdini 2.43 Hours 1.5 min 06/18 08:00 AM 06/18 08:03 AM 63.8x Complete!
70963 njones26 30 arnold 7.46 Hours 14.9 min 06/18 01:06 AM 06/18 01:35 AM 15.5x Complete!
70962 njones26 90 arnold 49.59 Hours 33.1 min 06/17 11:39 PM 06/18 12:56 AM 38.8x Complete!
70961 njones26 50 arnold 1.82 Hours 2.2 min 06/17 11:11 PM 06/17 11:14 PM 29.1x Complete!
70960 njones26 100 arnold 4.99 Hours 3 min 06/17 10:45 PM 06/17 10:51 PM 50.9x Complete!
70959 mzhang27 72 rman 16.82 Hours 14 min 06/17 09:08 PM 06/17 09:33 PM 39.8x Complete!
70958 mzhang27 96 rman 28.78 Hours 18 min 06/17 08:35 PM 06/17 09:05 PM 57.8x Complete!
70957 mzhang27 96 rman 30.92 Hours 19.3 min 06/17 07:35 PM 06/17 08:06 PM 58.2x Complete!
70956 botili20 100 arnold 115.43 Hours 69.3 min 06/17 07:32 PM 06/17 09:23 PM 62.4x Complete!
70955 mzhang27 20 rman 1.95 Hours 5.9 min 06/17 07:08 PM 06/17 07:15 PM 16.2x Complete!
70954 mzhang27 100 rman 9.81 Hours 5.9 min 06/17 06:51 PM 06/17 06:58 PM 76.9x Complete!
70953 mzhang27 90 rman 8.79 Hours 5.9 min 06/17 06:26 PM 06/17 06:50 PM 21.9x Complete!
Copyright 2014 Savannah College of Art and Design